sensor_id;sensor_type;location;lat;lon;timestamp;P1;durP1;ratioP1;P2;durP2;ratioP2
14907;SDS011;7545;52.092;7.006;2023-05-10T00:02:08;3.08;;;2.78;;
14907;SDS011;7545;52.092;7.006;2023-05-10T00:04:34;2.60;;;2.40;;
14907;SDS011;7545;52.092;7.006;2023-05-10T00:07:00;3.25;;;2.83;;
14907;SDS011;7545;52.092;7.006;2023-05-10T00:09:25;2.85;;;2.63;;
14907;SDS011;7545;52.092;7.006;2023-05-10T00:11:51;3.60;;;2.95;;
14907;SDS011;7545;52.092;7.006;2023-05-10T00:14:16;3.30;;;3.00;;
14907;SDS011;7545;52.092;7.006;2023-05-10T00:16:42;4.50;;;3.47;;
14907;SDS011;7545;52.092;7.006;2023-05-10T00:19:08;4.32;;;3.58;;
14907;SDS011;7545;52.092;7.006;2023-05-10T00:21:33;1.83;;;1.42;;
14907;SDS011;7545;52.092;7.006;2023-05-10T00:23:59;1.95;;;1.55;;
14907;SDS011;7545;52.092;7.006;2023-05-10T00:26:25;1.42;;;1.33;;
14907;SDS011;7545;52.092;7.006;2023-05-10T00:28:54;1.08;;;0.98;;
14907;SDS011;7545;52.092;7.006;2023-05-10T00:31:19;2.92;;;1.60;;
14907;SDS011;7545;52.092;7.006;2023-05-10T00:33:45;1.35;;;0.68;;
14907;SDS011;7545;52.092;7.006;2023-05-10T00:36:11;1.88;;;0.75;;
14907;SDS011;7545;52.092;7.006;2023-05-10T00:38:36;0.88;;;0.77;;
14907;SDS011;7545;52.092;7.006;2023-05-10T00:41:03;2.13;;;0.70;;
14907;SDS011;7545;52.092;7.006;2023-05-10T00:43:28;1.52;;;0.80;;
14907;SDS011;7545;52.092;7.006;2023-05-10T00:45:54;1.23;;;0.75;;
14907;SDS011;7545;52.092;7.006;2023-05-10T00:48:20;2.17;;;1.95;;
14907;SDS011;7545;52.092;7.006;2023-05-10T00:50:46;1.23;;;1.02;;
14907;SDS011;7545;52.092;7.006;2023-05-10T00:53:12;1.73;;;1.23;;
14907;SDS011;7545;52.092;7.006;2023-05-10T00:55:38;1.58;;;1.13;;
14907;SDS011;7545;52.092;7.006;2023-05-10T00:58:04;2.20;;;1.23;;
14907;SDS011;7545;52.092;7.006;2023-05-10T01:00:31;1.45;;;1.30;;
14907;SDS011;7545;52.092;7.006;2023-05-10T01:02:58;1.98;;;1.77;;
14907;SDS011;7545;52.092;7.006;2023-05-10T01:05:23;2.75;;;1.70;;
14907;SDS011;7545;52.092;7.006;2023-05-10T01:07:49;1.83;;;1.70;;
14907;SDS011;7545;52.092;7.006;2023-05-10T01:10:15;2.03;;;1.77;;
14907;SDS011;7545;52.092;7.006;2023-05-10T01:12:41;2.22;;;2.03;;
14907;SDS011;7545;52.092;7.006;2023-05-10T01:15:09;2.17;;;1.98;;
14907;SDS011;7545;52.092;7.006;2023-05-10T01:17:37;2.65;;;2.45;;
14907;SDS011;7545;52.092;7.006;2023-05-10T01:20:03;4.13;;;2.72;;
14907;SDS011;7545;52.092;7.006;2023-05-10T01:22:49;2.40;;;2.20;;
14907;SDS011;7545;52.092;7.006;2023-05-10T01:33:43;2.40;;;2.20;;
14907;SDS011;7545;52.092;7.006;2023-05-10T01:39:20;2.20;;;2.00;;
14907;SDS011;7545;52.092;7.006;2023-05-10T01:47:16;4.75;;;3.03;;
14907;SDS011;7545;52.092;7.006;2023-05-10T01:49:50;3.50;;;2.70;;
14907;SDS011;7545;52.092;7.006;2023-05-10T01:52:19;3.40;;;2.80;;
14907;SDS011;7545;52.092;7.006;2023-05-10T01:54:55;2.70;;;2.50;;
14907;SDS011;7545;52.092;7.006;2023-05-10T01:57:25;3.20;;;2.85;;
14907;SDS011;7545;52.092;7.006;2023-05-10T01:59:55;3.65;;;2.67;;
14907;SDS011;7545;52.092;7.006;2023-05-10T02:02:22;2.90;;;2.45;;
14907;SDS011;7545;52.092;7.006;2023-05-10T02:04:51;2.70;;;2.00;;
14907;SDS011;7545;52.092;7.006;2023-05-10T02:07:18;2.67;;;2.47;;
14907;SDS011;7545;52.092;7.006;2023-05-10T02:09:45;2.85;;;2.47;;
14907;SDS011;7545;52.092;7.006;2023-05-10T02:12:13;2.50;;;2.30;;
14907;SDS011;7545;52.092;7.006;2023-05-10T02:14:40;2.90;;;2.60;;
14907;SDS011;7545;52.092;7.006;2023-05-10T02:17:07;2.92;;;2.65;;
14907;SDS011;7545;52.092;7.006;2023-05-10T02:19:35;2.80;;;2.53;;
14907;SDS011;7545;52.092;7.006;2023-05-10T02:22:03;3.25;;;2.75;;
14907;SDS011;7545;52.092;7.006;2023-05-10T02:24:29;2.58;;;2.35;;
14907;SDS011;7545;52.092;7.006;2023-05-10T02:26:57;3.55;;;2.70;;
14907;SDS011;7545;52.092;7.006;2023-05-10T02:29:24;4.40;;;2.90;;
14907;SDS011;7545;52.092;7.006;2023-05-10T02:31:52;2.67;;;2.47;;
14907;SDS011;7545;52.092;7.006;2023-05-10T02:34:20;3.00;;;2.60;;
14907;SDS011;7545;52.092;7.006;2023-05-10T02:36:47;2.85;;;2.30;;
14907;SDS011;7545;52.092;7.006;2023-05-10T02:39:13;3.65;;;2.60;;
14907;SDS011;7545;52.092;7.006;2023-05-10T02:41:40;3.25;;;2.92;;
14907;SDS011;7545;52.092;7.006;2023-05-10T02:44:07;3.97;;;2.95;;
14907;SDS011;7545;52.092;7.006;2023-05-10T02:46:34;3.67;;;3.22;;
14907;SDS011;7545;52.092;7.006;2023-05-10T02:49:02;3.40;;;3.08;;
14907;SDS011;7545;52.092;7.006;2023-05-10T02:51:30;3.90;;;2.95;;
14907;SDS011;7545;52.092;7.006;2023-05-10T02:53:59;4.82;;;3.30;;
14907;SDS011;7545;52.092;7.006;2023-05-10T02:56:33;3.45;;;3.15;;
14907;SDS011;7545;52.092;7.006;2023-05-10T02:59:01;3.40;;;3.10;;
14907;SDS011;7545;52.092;7.006;2023-05-10T03:01:26;3.30;;;3.00;;
14907;SDS011;7545;52.092;7.006;2023-05-10T03:03:52;3.92;;;3.15;;
14907;SDS011;7545;52.092;7.006;2023-05-10T03:06:18;5.28;;;3.90;;
14907;SDS011;7545;52.092;7.006;2023-05-10T03:08:44;4.80;;;3.95;;
14907;SDS011;7545;52.092;7.006;2023-05-10T03:14:21;4.80;;;4.22;;
14907;SDS011;7545;52.092;7.006;2023-05-10T03:16:57;5.70;;;4.40;;
14907;SDS011;7545;52.092;7.006;2023-05-10T03:19:32;6.05;;;4.22;;
14907;SDS011;7545;52.092;7.006;2023-05-10T03:22:08;5.05;;;4.55;;
14907;SDS011;7545;52.092;7.006;2023-05-10T03:24:35;5.80;;;4.63;;
14907;SDS011;7545;52.092;7.006;2023-05-10T03:27:03;6.13;;;5.15;;
14907;SDS011;7545;52.092;7.006;2023-05-10T03:29:30;5.90;;;4.68;;
14907;SDS011;7545;52.092;7.006;2023-05-10T03:31:58;6.30;;;4.60;;
14907;SDS011;7545;52.092;7.006;2023-05-10T03:34:24;6.65;;;5.15;;
14907;SDS011;7545;52.092;7.006;2023-05-10T03:36:50;7.03;;;5.40;;
14907;SDS011;7545;52.092;7.006;2023-05-10T03:39:16;8.13;;;6.05;;
14907;SDS011;7545;52.092;7.006;2023-05-10T03:41:41;8.77;;;6.15;;
14907;SDS011;7545;52.092;7.006;2023-05-10T03:44:07;8.88;;;7.05;;
14907;SDS011;7545;52.092;7.006;2023-05-10T03:46:33;10.65;;;7.15;;
14907;SDS011;7545;52.092;7.006;2023-05-10T03:48:58;11.38;;;8.25;;
14907;SDS011;7545;52.092;7.006;2023-05-10T03:51:24;9.25;;;6.43;;
14907;SDS011;7545;52.092;7.006;2023-05-10T03:53:53;10.52;;;6.88;;
14907;SDS011;7545;52.092;7.006;2023-05-10T03:56:19;10.38;;;7.57;;
14907;SDS011;7545;52.092;7.006;2023-05-10T03:58:45;13.23;;;8.23;;
14907;SDS011;7545;52.092;7.006;2023-05-10T04:01:12;11.85;;;7.88;;
14907;SDS011;7545;52.092;7.006;2023-05-10T04:03:37;12.90;;;8.40;;
14907;SDS011;7545;52.092;7.006;2023-05-10T04:06:03;15.38;;;8.98;;
14907;SDS011;7545;52.092;7.006;2023-05-10T04:08:30;13.13;;;8.27;;
14907;SDS011;7545;52.092;7.006;2023-05-10T04:11:06;12.77;;;9.10;;
14907;SDS011;7545;52.092;7.006;2023-05-10T04:13:32;13.30;;;9.02;;
14907;SDS011;7545;52.092;7.006;2023-05-10T04:15:58;15.88;;;10.02;;
14907;SDS011;7545;52.092;7.006;2023-05-10T04:18:24;16.55;;;9.77;;
14907;SDS011;7545;52.092;7.006;2023-05-10T04:20:50;13.90;;;10.15;;
14907;SDS011;7545;52.092;7.006;2023-05-10T04:23:16;18.17;;;11.25;;
14907;SDS011;7545;52.092;7.006;2023-05-10T04:25:42;16.67;;;10.32;;
14907;SDS011;7545;52.092;7.006;2023-05-10T04:28:07;17.60;;;10.43;;
14907;SDS011;7545;52.092;7.006;2023-05-10T04:30:33;16.83;;;10.48;;
14907;SDS011;7545;52.092;7.006;2023-05-10T04:33:00;24.05;;;12.25;;
14907;SDS011;7545;52.092;7.006;2023-05-10T04:35:27;19.27;;;12.18;;
14907;SDS011;7545;52.092;7.006;2023-05-10T04:37:53;18.08;;;12.23;;
14907;SDS011;7545;52.092;7.006;2023-05-10T04:40:19;19.65;;;12.30;;
14907;SDS011;7545;52.092;7.006;2023-05-10T04:42:45;20.73;;;12.68;;
14907;SDS011;7545;52.092;7.006;2023-05-10T04:45:11;22.77;;;12.77;;
14907;SDS011;7545;52.092;7.006;2023-05-10T04:47:37;21.05;;;13.10;;
14907;SDS011;7545;52.092;7.006;2023-05-10T04:50:03;19.60;;;12.43;;
14907;SDS011;7545;52.092;7.006;2023-05-10T04:52:29;21.17;;;13.40;;
14907;SDS011;7545;52.092;7.006;2023-05-10T04:54:55;25.55;;;14.50;;
14907;SDS011;7545;52.092;7.006;2023-05-10T04:57:20;19.92;;;13.48;;
14907;SDS011;7545;52.092;7.006;2023-05-10T04:59:46;21.02;;;13.23;;
14907;SDS011;7545;52.092;7.006;2023-05-10T05:02:11;23.38;;;14.00;;
14907;SDS011;7545;52.092;7.006;2023-05-10T05:04:37;25.00;;;14.35;;
14907;SDS011;7545;52.092;7.006;2023-05-10T05:07:03;23.73;;;14.63;;
14907;SDS011;7545;52.092;7.006;2023-05-10T05:09:28;26.00;;;14.32;;
14907;SDS011;7545;52.092;7.006;2023-05-10T05:11:54;25.77;;;14.95;;
14907;SDS011;7545;52.092;7.006;2023-05-10T05:14:20;26.52;;;14.85;;
14907;SDS011;7545;52.092;7.006;2023-05-10T05:16:46;27.45;;;16.27;;
14907;SDS011;7545;52.092;7.006;2023-05-10T05:19:11;25.70;;;15.35;;
14907;SDS011;7545;52.092;7.006;2023-05-10T05:21:37;27.13;;;15.50;;
14907;SDS011;7545;52.092;7.006;2023-05-10T05:24:03;28.65;;;16.52;;
14907;SDS011;7545;52.092;7.006;2023-05-10T05:26:29;26.33;;;16.65;;
14907;SDS011;7545;52.092;7.006;2023-05-10T05:28:54;27.40;;;16.40;;
14907;SDS011;7545;52.092;7.006;2023-05-10T05:31:20;31.38;;;16.10;;
14907;SDS011;7545;52.092;7.006;2023-05-10T05:33:46;31.20;;;17.27;;
14907;SDS011;7545;52.092;7.006;2023-05-10T05:36:11;27.80;;;16.42;;
14907;SDS011;7545;52.092;7.006;2023-05-10T05:38:37;28.45;;;16.30;;
14907;SDS011;7545;52.092;7.006;2023-05-10T05:41:03;29.45;;;17.38;;
14907;SDS011;7545;52.092;7.006;2023-05-10T05:43:28;31.00;;;18.80;;
14907;SDS011;7545;52.092;7.006;2023-05-10T05:45:54;28.45;;;17.05;;
14907;SDS011;7545;52.092;7.006;2023-05-10T05:48:22;27.33;;;16.55;;
14907;SDS011;7545;52.092;7.006;2023-05-10T05:50:48;30.92;;;17.10;;
14907;SDS011;7545;52.092;7.006;2023-05-10T05:53:14;33.65;;;18.70;;
14907;SDS011;7545;52.092;7.006;2023-05-10T05:55:40;33.28;;;18.45;;
14907;SDS011;7545;52.092;7.006;2023-05-10T05:58:15;33.75;;;18.52;;
14907;SDS011;7545;52.092;7.006;2023-05-10T06:00:41;26.73;;;17.50;;
14907;SDS011;7545;52.092;7.006;2023-05-10T06:03:06;31.73;;;19.15;;
14907;SDS011;7545;52.092;7.006;2023-05-10T06:05:32;31.50;;;19.13;;
14907;SDS011;7545;52.092;7.006;2023-05-10T06:07:59;27.23;;;18.25;;
14907;SDS011;7545;52.092;7.006;2023-05-10T06:10:25;28.55;;;18.08;;
14907;SDS011;7545;52.092;7.006;2023-05-10T06:12:51;30.35;;;17.60;;
14907;SDS011;7545;52.092;7.006;2023-05-10T06:15:17;29.58;;;17.88;;
14907;SDS011;7545;52.092;7.006;2023-05-10T06:17:43;29.88;;;16.10;;
14907;SDS011;7545;52.092;7.006;2023-05-10T06:20:09;31.48;;;18.77;;
14907;SDS011;7545;52.092;7.006;2023-05-10T06:22:35;35.05;;;19.15;;
14907;SDS011;7545;52.092;7.006;2023-05-10T06:25:01;29.10;;;17.08;;
14907;SDS011;7545;52.092;7.006;2023-05-10T06:27:27;28.75;;;17.92;;
14907;SDS011;7545;52.092;7.006;2023-05-10T06:29:53;30.50;;;18.48;;
14907;SDS011;7545;52.092;7.006;2023-05-10T06:32:19;35.80;;;18.98;;
14907;SDS011;7545;52.092;7.006;2023-05-10T06:34:44;30.27;;;18.85;;
14907;SDS011;7545;52.092;7.006;2023-05-10T06:37:11;30.52;;;18.13;;
14907;SDS011;7545;52.092;7.006;2023-05-10T06:39:36;28.45;;;17.63;;
14907;SDS011;7545;52.092;7.006;2023-05-10T06:42:02;35.42;;;20.95;;
14907;SDS011;7545;52.092;7.006;2023-05-10T06:44:29;37.40;;;19.70;;
14907;SDS011;7545;52.092;7.006;2023-05-10T06:46:55;33.67;;;18.60;;
14907;SDS011;7545;52.092;7.006;2023-05-10T06:49:20;35.70;;;20.05;;
14907;SDS011;7545;52.092;7.006;2023-05-10T06:51:47;29.75;;;17.35;;
14907;SDS011;7545;52.092;7.006;2023-05-10T06:54:13;33.70;;;19.30;;
14907;SDS011;7545;52.092;7.006;2023-05-10T06:56:39;31.33;;;19.58;;
14907;SDS011;7545;52.092;7.006;2023-05-10T06:59:04;34.60;;;20.02;;
14907;SDS011;7545;52.092;7.006;2023-05-10T07:01:30;30.45;;;18.55;;
14907;SDS011;7545;52.092;7.006;2023-05-10T07:03:55;31.08;;;18.95;;
14907;SDS011;7545;52.092;7.006;2023-05-10T07:06:21;29.67;;;18.77;;
14907;SDS011;7545;52.092;7.006;2023-05-10T07:08:47;33.53;;;18.98;;
14907;SDS011;7545;52.092;7.006;2023-05-10T07:11:12;35.80;;;18.80;;
14907;SDS011;7545;52.092;7.006;2023-05-10T07:13:38;32.13;;;19.02;;
14907;SDS011;7545;52.092;7.006;2023-05-10T07:16:06;28.08;;;17.48;;
14907;SDS011;7545;52.092;7.006;2023-05-10T07:18:32;34.17;;;18.42;;
14907;SDS011;7545;52.092;7.006;2023-05-10T07:20:58;30.70;;;18.33;;
14907;SDS011;7545;52.092;7.006;2023-05-10T07:23:24;31.80;;;18.15;;
14907;SDS011;7545;52.092;7.006;2023-05-10T07:25:50;32.67;;;18.13;;
14907;SDS011;7545;52.092;7.006;2023-05-10T07:28:17;29.25;;;17.42;;
14907;SDS011;7545;52.092;7.006;2023-05-10T07:30:43;29.92;;;17.58;;
14907;SDS011;7545;52.092;7.006;2023-05-10T07:33:09;32.00;;;17.60;;
14907;SDS011;7545;52.092;7.006;2023-05-10T07:35:36;33.53;;;17.30;;
14907;SDS011;7545;52.092;7.006;2023-05-10T07:38:02;32.55;;;17.35;;
14907;SDS011;7545;52.092;7.006;2023-05-10T07:40:28;30.95;;;17.13;;
14907;SDS011;7545;52.092;7.006;2023-05-10T07:42:53;28.25;;;17.60;;
14907;SDS011;7545;52.092;7.006;2023-05-10T07:45:19;30.98;;;18.17;;
14907;SDS011;7545;52.092;7.006;2023-05-10T07:47:45;30.02;;;17.75;;
14907;SDS011;7545;52.092;7.006;2023-05-10T07:50:10;27.27;;;16.67;;
14907;SDS011;7545;52.092;7.006;2023-05-10T07:52:36;27.35;;;16.10;;
14907;SDS011;7545;52.092;7.006;2023-05-10T07:55:02;25.85;;;15.63;;
14907;SDS011;7545;52.092;7.006;2023-05-10T07:57:27;24.80;;;15.52;;
14907;SDS011;7545;52.092;7.006;2023-05-10T07:59:53;24.63;;;15.50;;
14907;SDS011;7545;52.092;7.006;2023-05-10T08:02:18;29.25;;;16.33;;
14907;SDS011;7545;52.092;7.006;2023-05-10T08:04:44;25.73;;;15.00;;
14907;SDS011;7545;52.092;7.006;2023-05-10T08:07:10;28.95;;;15.68;;
14907;SDS011;7545;52.092;7.006;2023-05-10T08:09:36;31.15;;;16.27;;
14907;SDS011;7545;52.092;7.006;2023-05-10T08:12:01;25.95;;;13.85;;
14907;SDS011;7545;52.092;7.006;2023-05-10T08:14:28;26.02;;;15.68;;
14907;SDS011;7545;52.092;7.006;2023-05-10T08:16:54;25.60;;;14.82;;
14907;SDS011;7545;52.092;7.006;2023-05-10T08:19:20;25.33;;;15.50;;
14907;SDS011;7545;52.092;7.006;2023-05-10T08:21:46;24.88;;;14.65;;
14907;SDS011;7545;52.092;7.006;2023-05-10T08:24:12;23.17;;;14.23;;
14907;SDS011;7545;52.092;7.006;2023-05-10T08:26:38;23.30;;;14.25;;
14907;SDS011;7545;52.092;7.006;2023-05-10T08:29:04;24.20;;;13.45;;
14907;SDS011;7545;52.092;7.006;2023-05-10T08:31:29;20.75;;;14.18;;
14907;SDS011;7545;52.092;7.006;2023-05-10T08:33:55;23.23;;;14.10;;
14907;SDS011;7545;52.092;7.006;2023-05-10T08:36:20;24.98;;;15.02;;
14907;SDS011;7545;52.092;7.006;2023-05-10T08:38:52;26.70;;;14.18;;
14907;SDS011;7545;52.092;7.006;2023-05-10T08:41:21;26.50;;;14.65;;
14907;SDS011;7545;52.092;7.006;2023-05-10T08:43:50;27.48;;;15.25;;
14907;SDS011;7545;52.092;7.006;2023-05-10T08:46:17;29.00;;;14.55;;
14907;SDS011;7545;52.092;7.006;2023-05-10T08:48:44;27.08;;;14.52;;
14907;SDS011;7545;52.092;7.006;2023-05-10T08:51:12;23.75;;;14.07;;
14907;SDS011;7545;52.092;7.006;2023-05-10T08:53:39;22.52;;;14.40;;
14907;SDS011;7545;52.092;7.006;2023-05-10T08:56:05;26.30;;;15.48;;
14907;SDS011;7545;52.092;7.006;2023-05-10T08:58:37;21.80;;;14.00;;
14907;SDS011;7545;52.092;7.006;2023-05-10T09:01:03;24.52;;;15.02;;
14907;SDS011;7545;52.092;7.006;2023-05-10T09:03:30;26.05;;;15.10;;
14907;SDS011;7545;52.092;7.006;2023-05-10T09:05:56;25.42;;;13.90;;
14907;SDS011;7545;52.092;7.006;2023-05-10T09:08:25;27.20;;;15.07;;
14907;SDS011;7545;52.092;7.006;2023-05-10T09:10:51;23.88;;;14.13;;
14907;SDS011;7545;52.092;7.006;2023-05-10T09:13:17;23.60;;;13.82;;
14907;SDS011;7545;52.092;7.006;2023-05-10T09:15:44;26.73;;;14.38;;
14907;SDS011;7545;52.092;7.006;2023-05-10T09:18:10;27.20;;;14.43;;
14907;SDS011;7545;52.092;7.006;2023-05-10T09:20:36;24.00;;;14.55;;
14907;SDS011;7545;52.092;7.006;2023-05-10T09:23:02;22.90;;;13.70;;
14907;SDS011;7545;52.092;7.006;2023-05-10T09:25:27;24.00;;;14.95;;
14907;SDS011;7545;52.092;7.006;2023-05-10T09:27:53;25.25;;;16.33;;
14907;SDS011;7545;52.092;7.006;2023-05-10T09:30:24;25.30;;;15.30;;
14907;SDS011;7545;52.092;7.006;2023-05-10T09:32:54;20.95;;;14.38;;
14907;SDS011;7545;52.092;7.006;2023-05-10T09:35:21;24.77;;;13.98;;
14907;SDS011;7545;52.092;7.006;2023-05-10T09:37:52;24.23;;;14.50;;
14907;SDS011;7545;52.092;7.006;2023-05-10T09:40:20;31.33;;;14.55;;
14907;SDS011;7545;52.092;7.006;2023-05-10T09:45:17;22.48;;;13.80;;
14907;SDS011;7545;52.092;7.006;2023-05-10T09:47:42;21.25;;;12.32;;
14907;SDS011;7545;52.092;7.006;2023-05-10T09:50:08;20.25;;;13.13;;
14907;SDS011;7545;52.092;7.006;2023-05-10T09:58:05;21.02;;;12.48;;
14907;SDS011;7545;52.092;7.006;2023-05-10T10:00:38;20.50;;;13.13;;
14907;SDS011;7545;52.092;7.006;2023-05-10T10:03:05;18.90;;;12.88;;
14907;SDS011;7545;52.092;7.006;2023-05-10T10:05:32;18.60;;;11.48;;
14907;SDS011;7545;52.092;7.006;2023-05-10T10:07:59;19.08;;;12.23;;
14907;SDS011;7545;52.092;7.006;2023-05-10T10:10:27;21.15;;;13.00;;
14907;SDS011;7545;52.092;7.006;2023-05-10T10:12:53;20.27;;;11.93;;
14907;SDS011;7545;52.092;7.006;2023-05-10T10:15:22;20.80;;;12.82;;
14907;SDS011;7545;52.092;7.006;2023-05-10T10:17:49;18.42;;;12.20;;
14907;SDS011;7545;52.092;7.006;2023-05-10T10:20:15;19.08;;;11.98;;
14907;SDS011;7545;52.092;7.006;2023-05-10T10:22:42;19.27;;;12.60;;
14907;SDS011;7545;52.092;7.006;2023-05-10T10:25:14;18.10;;;13.07;;
14907;SDS011;7545;52.092;7.006;2023-05-10T10:36:16;22.58;;;12.38;;
14907;SDS011;7545;52.092;7.006;2023-05-10T10:44:36;16.27;;;11.63;;
14907;SDS011;7545;52.092;7.006;2023-05-10T10:47:04;17.95;;;10.40;;
14907;SDS011;7545;52.092;7.006;2023-05-10T10:49:50;17.23;;;11.68;;
14907;SDS011;7545;52.092;7.006;2023-05-10T10:52:34;16.13;;;11.82;;
14907;SDS011;7545;52.092;7.006;2023-05-10T10:57:51;18.42;;;13.23;;
14907;SDS011;7545;52.092;7.006;2023-05-10T11:07:54;17.13;;;12.25;;
14907;SDS011;7545;52.092;7.006;2023-05-10T11:10:22;17.92;;;11.25;;
14907;SDS011;7545;52.092;7.006;2023-05-10T11:13:07;19.08;;;11.73;;
14907;SDS011;7545;52.092;7.006;2023-05-10T11:15:40;21.60;;;12.52;;
14907;SDS011;7545;52.092;7.006;2023-05-10T11:18:21;20.58;;;12.30;;
14907;SDS011;7545;52.092;7.006;2023-05-10T11:21:22;20.90;;;11.55;;
14907;SDS011;7545;52.092;7.006;2023-05-10T11:23:47;19.80;;;11.02;;
14907;SDS011;7545;52.092;7.006;2023-05-10T11:26:15;19.83;;;11.35;;
14907;SDS011;7545;52.092;7.006;2023-05-10T11:28:41;17.40;;;11.23;;
14907;SDS011;7545;52.092;7.006;2023-05-10T11:31:08;15.63;;;10.18;;
14907;SDS011;7545;52.092;7.006;2023-05-10T11:36:14;17.13;;;10.25;;
14907;SDS011;7545;52.092;7.006;2023-05-10T11:38:41;17.15;;;10.45;;
14907;SDS011;7545;52.092;7.006;2023-05-10T11:41:08;17.42;;;10.20;;
14907;SDS011;7545;52.092;7.006;2023-05-10T11:43:34;18.90;;;11.52;;
14907;SDS011;7545;52.092;7.006;2023-05-10T11:46:03;19.17;;;10.25;;
14907;SDS011;7545;52.092;7.006;2023-05-10T11:48:31;19.65;;;11.43;;
14907;SDS011;7545;52.092;7.006;2023-05-10T11:50:57;19.73;;;10.30;;
14907;SDS011;7545;52.092;7.006;2023-05-10T11:53:23;21.13;;;11.35;;
14907;SDS011;7545;52.092;7.006;2023-05-10T11:55:51;18.92;;;11.13;;
14907;SDS011;7545;52.092;7.006;2023-05-10T11:58:17;17.02;;;11.25;;
14907;SDS011;7545;52.092;7.006;2023-05-10T12:00:44;18.48;;;11.18;;
14907;SDS011;7545;52.092;7.006;2023-05-10T12:03:10;17.52;;;10.60;;
14907;SDS011;7545;52.092;7.006;2023-05-10T12:05:36;18.65;;;11.07;;
14907;SDS011;7545;52.092;7.006;2023-05-10T12:08:22;21.83;;;11.45;;
14907;SDS011;7545;52.092;7.006;2023-05-10T12:10:49;20.42;;;11.38;;
14907;SDS011;7545;52.092;7.006;2023-05-10T12:13:15;18.17;;;12.02;;
14907;SDS011;7545;52.092;7.006;2023-05-10T12:15:41;18.17;;;11.85;;
14907;SDS011;7545;52.092;7.006;2023-05-10T12:18:08;21.90;;;11.75;;
14907;SDS011;7545;52.092;7.006;2023-05-10T12:20:35;20.77;;;12.73;;
14907;SDS011;7545;52.092;7.006;2023-05-10T12:23:01;21.73;;;12.38;;
14907;SDS011;7545;52.092;7.006;2023-05-10T12:25:35;21.70;;;12.73;;
14907;SDS011;7545;52.092;7.006;2023-05-10T12:28:03;22.33;;;12.30;;
14907;SDS011;7545;52.092;7.006;2023-05-10T12:30:31;23.05;;;12.70;;
14907;SDS011;7545;52.092;7.006;2023-05-10T12:33:01;21.63;;;13.38;;
14907;SDS011;7545;52.092;7.006;2023-05-10T12:35:32;22.50;;;12.57;;
14907;SDS011;7545;52.092;7.006;2023-05-10T12:37:58;20.88;;;12.73;;
14907;SDS011;7545;52.092;7.006;2023-05-10T12:40:23;20.95;;;13.35;;
14907;SDS011;7545;52.092;7.006;2023-05-10T12:42:49;20.63;;;12.95;;
14907;SDS011;7545;52.092;7.006;2023-05-10T12:45:17;21.02;;;12.57;;
14907;SDS011;7545;52.092;7.006;2023-05-10T12:47:43;21.35;;;12.82;;
14907;SDS011;7545;52.092;7.006;2023-05-10T12:50:09;18.80;;;12.93;;
14907;SDS011;7545;52.092;7.006;2023-05-10T12:52:35;21.25;;;12.98;;
14907;SDS011;7545;52.092;7.006;2023-05-10T12:55:01;21.33;;;13.40;;
14907;SDS011;7545;52.092;7.006;2023-05-10T12:57:28;22.40;;;13.52;;
14907;SDS011;7545;52.092;7.006;2023-05-10T12:59:54;24.70;;;13.27;;
14907;SDS011;7545;52.092;7.006;2023-05-10T13:02:20;18.45;;;11.93;;
14907;SDS011;7545;52.092;7.006;2023-05-10T13:04:46;17.55;;;11.68;;
14907;SDS011;7545;52.092;7.006;2023-05-10T13:07:12;24.02;;;13.70;;
14907;SDS011;7545;52.092;7.006;2023-05-10T13:09:38;20.40;;;13.20;;
14907;SDS011;7545;52.092;7.006;2023-05-10T13:12:04;18.67;;;12.40;;
14907;SDS011;7545;52.092;7.006;2023-05-10T13:14:30;18.77;;;12.05;;
14907;SDS011;7545;52.092;7.006;2023-05-10T13:16:56;18.00;;;10.93;;
14907;SDS011;7545;52.092;7.006;2023-05-10T13:19:22;16.45;;;11.73;;
14907;SDS011;7545;52.092;7.006;2023-05-10T13:21:48;16.55;;;11.23;;
14907;SDS011;7545;52.092;7.006;2023-05-10T13:24:13;13.60;;;9.80;;
14907;SDS011;7545;52.092;7.006;2023-05-10T13:26:39;15.68;;;10.57;;
14907;SDS011;7545;52.092;7.006;2023-05-10T13:29:06;13.43;;;9.45;;
14907;SDS011;7545;52.092;7.006;2023-05-10T13:31:32;12.35;;;7.57;;
14907;SDS011;7545;52.092;7.006;2023-05-10T13:33:58;8.90;;;6.15;;
14907;SDS011;7545;52.092;7.006;2023-05-10T13:36:23;10.98;;;6.65;;
14907;SDS011;7545;52.092;7.006;2023-05-10T13:38:49;9.30;;;6.07;;
14907;SDS011;7545;52.092;7.006;2023-05-10T13:41:15;9.32;;;6.95;;
14907;SDS011;7545;52.092;7.006;2023-05-10T13:43:40;11.75;;;7.68;;
14907;SDS011;7545;52.092;7.006;2023-05-10T13:46:06;11.65;;;7.43;;
14907;SDS011;7545;52.092;7.006;2023-05-10T13:48:31;12.90;;;7.97;;
14907;SDS011;7545;52.092;7.006;2023-05-10T13:50:57;11.68;;;8.00;;
14907;SDS011;7545;52.092;7.006;2023-05-10T13:53:23;11.48;;;7.55;;
14907;SDS011;7545;52.092;7.006;2023-05-10T13:55:48;9.52;;;6.82;;
14907;SDS011;7545;52.092;7.006;2023-05-10T13:58:14;12.63;;;7.93;;
14907;SDS011;7545;52.092;7.006;2023-05-10T14:00:39;10.45;;;7.80;;
14907;SDS011;7545;52.092;7.006;2023-05-10T14:03:05;10.98;;;7.30;;
14907;SDS011;7545;52.092;7.006;2023-05-10T14:05:31;11.30;;;7.30;;
14907;SDS011;7545;52.092;7.006;2023-05-10T14:07:57;10.27;;;7.18;;
14907;SDS011;7545;52.092;7.006;2023-05-10T14:10:23;11.35;;;6.63;;
14907;SDS011;7545;52.092;7.006;2023-05-10T14:12:49;12.32;;;5.95;;
14907;SDS011;7545;52.092;7.006;2023-05-10T14:15:15;8.45;;;5.95;;
14907;SDS011;7545;52.092;7.006;2023-05-10T14:17:41;8.88;;;6.40;;
14907;SDS011;7545;52.092;7.006;2023-05-10T14:20:06;9.02;;;5.82;;
14907;SDS011;7545;52.092;7.006;2023-05-10T14:22:33;8.95;;;6.32;;
14907;SDS011;7545;52.092;7.006;2023-05-10T14:24:59;8.32;;;5.60;;
14907;SDS011;7545;52.092;7.006;2023-05-10T14:27:28;11.38;;;6.00;;
14907;SDS011;7545;52.092;7.006;2023-05-10T14:29:54;7.88;;;5.28;;
14907;SDS011;7545;52.092;7.006;2023-05-10T14:32:20;9.73;;;6.18;;
14907;SDS011;7545;52.092;7.006;2023-05-10T14:34:45;6.63;;;5.22;;
14907;SDS011;7545;52.092;7.006;2023-05-10T14:37:11;7.15;;;5.53;;
14907;SDS011;7545;52.092;7.006;2023-05-10T14:39:38;7.95;;;4.82;;
14907;SDS011;7545;52.092;7.006;2023-05-10T14:42:04;7.47;;;5.32;;
14907;SDS011;7545;52.092;7.006;2023-05-10T14:44:29;6.28;;;4.72;;
14907;SDS011;7545;52.092;7.006;2023-05-10T14:46:55;6.18;;;4.28;;
14907;SDS011;7545;52.092;7.006;2023-05-10T14:49:21;7.55;;;4.75;;
14907;SDS011;7545;52.092;7.006;2023-05-10T14:51:52;6.78;;;4.82;;
14907;SDS011;7545;52.092;7.006;2023-05-10T14:54:18;6.43;;;4.82;;
14907;SDS011;7545;52.092;7.006;2023-05-10T14:56:43;6.15;;;4.57;;
14907;SDS011;7545;52.092;7.006;2023-05-10T14:59:09;7.07;;;4.00;;
14907;SDS011;7545;52.092;7.006;2023-05-10T15:01:35;4.63;;;3.30;;
14907;SDS011;7545;52.092;7.006;2023-05-10T15:04:03;5.82;;;4.05;;
14907;SDS011;7545;52.092;7.006;2023-05-10T15:06:33;5.05;;;4.00;;
14907;SDS011;7545;52.092;7.006;2023-05-10T15:08:59;6.55;;;4.18;;
14907;SDS011;7545;52.092;7.006;2023-05-10T15:11:26;5.35;;;3.58;;
14907;SDS011;7545;52.092;7.006;2023-05-10T15:13:52;4.72;;;3.17;;
14907;SDS011;7545;52.092;7.006;2023-05-10T15:16:18;4.63;;;3.67;;
14907;SDS011;7545;52.092;7.006;2023-05-10T15:18:47;7.65;;;3.60;;
14907;SDS011;7545;52.092;7.006;2023-05-10T15:21:16;5.68;;;3.63;;
14907;SDS011;7545;52.092;7.006;2023-05-10T15:23:44;7.07;;;4.40;;
14907;SDS011;7545;52.092;7.006;2023-05-10T15:26:10;6.00;;;4.20;;
14907;SDS011;7545;52.092;7.006;2023-05-10T15:28:35;6.40;;;4.43;;
14907;SDS011;7545;52.092;7.006;2023-05-10T15:31:01;6.55;;;3.53;;
14907;SDS011;7545;52.092;7.006;2023-05-10T15:33:27;6.13;;;4.47;;
14907;SDS011;7545;52.092;7.006;2023-05-10T15:35:53;6.53;;;4.50;;
14907;SDS011;7545;52.092;7.006;2023-05-10T15:38:19;8.55;;;5.05;;
14907;SDS011;7545;52.092;7.006;2023-05-10T15:40:44;6.82;;;4.93;;